sensor_id;sensor_type;location;lat;lon;timestamp;temperature;humidity
11067;DHT22;29763;50.904;5.530;2022-12-07T00:01:09;4.50;99.90
11067;DHT22;29763;50.904;5.530;2022-12-07T00:03:35;4.60;99.90
11067;DHT22;29763;50.904;5.530;2022-12-07T00:06:03;4.50;99.90
11067;DHT22;29763;50.904;5.530;2022-12-07T00:08:30;4.50;99.90
11067;DHT22;29763;50.904;5.530;2022-12-07T00:11:02;4.50;99.90
11067;DHT22;29763;50.904;5.530;2022-12-07T00:13:28;4.40;99.90
11067;DHT22;29763;50.904;5.530;2022-12-07T00:16:05;4.40;99.90
11067;DHT22;29763;50.904;5.530;2022-12-07T00:18:31;4.40;99.90
11067;DHT22;29763;50.904;5.530;2022-12-07T00:21:05;4.40;99.90
11067;DHT22;29763;50.904;5.530;2022-12-07T00:23:32;4.40;99.90
11067;DHT22;29763;50.904;5.530;2022-12-07T00:26:12;4.40;99.90
11067;DHT22;29763;50.904;5.530;2022-12-07T00:28:38;4.40;99.90
11067;DHT22;29763;50.904;5.530;2022-12-07T00:31:08;4.40;99.90
11067;DHT22;29763;50.904;5.530;2022-12-07T00:33:35;4.40;99.90
11067;DHT22;29763;50.904;5.530;2022-12-07T00:36:03;4.50;99.90
11067;DHT22;29763;50.904;5.530;2022-12-07T00:38:32;4.50;99.90
11067;DHT22;29763;50.904;5.530;2022-12-07T00:41:00;4.40;99.90
11067;DHT22;29763;50.904;5.530;2022-12-07T00:43:26;4.30;99.90
11067;DHT22;29763;50.904;5.530;2022-12-07T00:45:52;4.20;99.90
11067;DHT22;29763;50.904;5.530;2022-12-07T00:48:18;4.10;99.90
11067;DHT22;29763;50.904;5.530;2022-12-07T00:50:44;4.00;99.90
11067;DHT22;29763;50.904;5.530;2022-12-07T00:53:10;4.00;99.90
11067;DHT22;29763;50.904;5.530;2022-12-07T00:55:38;4.00;99.90
11067;DHT22;29763;50.904;5.530;2022-12-07T00:58:04;4.10;99.90
11067;DHT22;29763;50.904;5.530;2022-12-07T01:00:30;4.10;99.90
11067;DHT22;29763;50.904;5.530;2022-12-07T01:02:59;4.10;99.90
11067;DHT22;29763;50.904;5.530;2022-12-07T01:05:25;4.20;99.90
11067;DHT22;29763;50.904;5.530;2022-12-07T01:07:51;4.20;99.90
11067;DHT22;29763;50.904;5.530;2022-12-07T01:10:17;4.20;99.90
11067;DHT22;29763;50.904;5.530;2022-12-07T01:12:42;4.20;99.90
11067;DHT22;29763;50.904;5.530;2022-12-07T01:15:08;4.20;99.90
11067;DHT22;29763;50.904;5.530;2022-12-07T01:17:37;4.20;99.90
11067;DHT22;29763;50.904;5.530;2022-12-07T01:20:04;4.20;99.90
11067;DHT22;29763;50.904;5.530;2022-12-07T01:22:30;4.30;99.90
11067;DHT22;29763;50.904;5.530;2022-12-07T01:24:58;4.30;99.90
11067;DHT22;29763;50.904;5.530;2022-12-07T01:27:24;4.30;99.90
11067;DHT22;29763;50.904;5.530;2022-12-07T01:29:51;4.30;99.90
11067;DHT22;29763;50.904;5.530;2022-12-07T01:32:16;4.40;99.90
11067;DHT22;29763;50.904;5.530;2022-12-07T01:34:42;4.40;99.90
11067;DHT22;29763;50.904;5.530;2022-12-07T01:37:11;4.40;99.90
11067;DHT22;29763;50.904;5.530;2022-12-07T01:39:39;4.40;99.90
11067;DHT22;29763;50.904;5.530;2022-12-07T01:42:04;4.40;99.90
11067;DHT22;29763;50.904;5.530;2022-12-07T01:44:31;4.40;99.90
11067;DHT22;29763;50.904;5.530;2022-12-07T01:47:02;4.40;99.90
11067;DHT22;29763;50.904;5.530;2022-12-07T01:52:23;4.30;99.90
11067;DHT22;29763;50.904;5.530;2022-12-07T01:54:50;4.40;99.90
11067;DHT22;29763;50.904;5.530;2022-12-07T01:57:17;4.40;99.90
11067;DHT22;29763;50.904;5.530;2022-12-07T01:59:48;4.30;99.90
11067;DHT22;29763;50.904;5.530;2022-12-07T02:02:20;4.30;99.90
11067;DHT22;29763;50.904;5.530;2022-12-07T02:04:48;4.30;99.90
11067;DHT22;29763;50.904;5.530;2022-12-07T02:07:14;4.30;99.90
11067;DHT22;29763;50.904;5.530;2022-12-07T02:09:40;4.30;99.90
11067;DHT22;29763;50.904;5.530;2022-12-07T02:12:06;4.30;99.90
11067;DHT22;29763;50.904;5.530;2022-12-07T02:14:35;4.30;99.90
11067;DHT22;29763;50.904;5.530;2022-12-07T02:17:11;4.30;99.90
11067;DHT22;29763;50.904;5.530;2022-12-07T02:30:31;4.20;99.90
11067;DHT22;29763;50.904;5.530;2022-12-07T02:33:03;4.20;99.90
11067;DHT22;29763;50.904;5.530;2022-12-07T02:35:48;4.20;99.90
11067;DHT22;29763;50.904;5.530;2022-12-07T02:38:26;4.10;99.90
11067;DHT22;29763;50.904;5.530;2022-12-07T02:41:02;4.20;99.90
11067;DHT22;29763;50.904;5.530;2022-12-07T02:43:41;4.20;99.90
11067;DHT22;29763;50.904;5.530;2022-12-07T02:46:12;4.20;99.90
11067;DHT22;29763;50.904;5.530;2022-12-07T02:48:40;4.20;99.90
11067;DHT22;29763;50.904;5.530;2022-12-07T02:51:07;4.20;99.90
11067;DHT22;29763;50.904;5.530;2022-12-07T03:07:16;4.20;99.90
11067;DHT22;29763;50.904;5.530;2022-12-07T03:09:52;4.20;99.90
11067;DHT22;29763;50.904;5.530;2022-12-07T03:12:48;4.20;99.90
11067;DHT22;29763;50.904;5.530;2022-12-07T03:15:16;4.30;99.90
11067;DHT22;29763;50.904;5.530;2022-12-07T03:17:43;4.30;99.90
11067;DHT22;29763;50.904;5.530;2022-12-07T03:20:13;4.30;99.90
11067;DHT22;29763;50.904;5.530;2022-12-07T03:22:42;4.30;99.90
11067;DHT22;29763;50.904;5.530;2022-12-07T03:25:13;4.30;99.90
11067;DHT22;29763;50.904;5.530;2022-12-07T03:27:54;4.30;99.90
11067;DHT22;29763;50.904;5.530;2022-12-07T03:30:33;4.30;99.90
11067;DHT22;29763;50.904;5.530;2022-12-07T03:33:13;4.40;99.90
11067;DHT22;29763;50.904;5.530;2022-12-07T03:35:50;4.40;99.90
11067;DHT22;29763;50.904;5.530;2022-12-07T03:38:41;4.30;99.90
11067;DHT22;29763;50.904;5.530;2022-12-07T03:41:07;4.40;99.90
11067;DHT22;29763;50.904;5.530;2022-12-07T03:43:36;4.40;99.90
11067;DHT22;29763;50.904;5.530;2022-12-07T03:49:12;4.40;99.90
11067;DHT22;29763;50.904;5.530;2022-12-07T03:51:55;4.40;99.90
11067;DHT22;29763;50.904;5.530;2022-12-07T03:56:57;4.40;99.90
11067;DHT22;29763;50.904;5.530;2022-12-07T03:59:24;4.40;99.90
11067;DHT22;29763;50.904;5.530;2022-12-07T04:01:56;4.50;99.90
11067;DHT22;29763;50.904;5.530;2022-12-07T04:04:24;4.40;99.90
11067;DHT22;29763;50.904;5.530;2022-12-07T04:06:50;4.40;99.90
11067;DHT22;29763;50.904;5.530;2022-12-07T04:09:17;4.40;99.90
11067;DHT22;29763;50.904;5.530;2022-12-07T04:11:43;4.40;99.90
11067;DHT22;29763;50.904;5.530;2022-12-07T04:14:09;4.40;99.90
11067;DHT22;29763;50.904;5.530;2022-12-07T04:16:55;4.40;99.90
11067;DHT22;29763;50.904;5.530;2022-12-07T04:19:26;4.40;99.90
11067;DHT22;29763;50.904;5.530;2022-12-07T04:21:52;4.40;99.90
11067;DHT22;29763;50.904;5.530;2022-12-07T04:24:19;4.40;99.90
11067;DHT22;29763;50.904;5.530;2022-12-07T04:26:46;4.40;99.90
11067;DHT22;29763;50.904;5.530;2022-12-07T04:29:12;4.40;99.90
11067;DHT22;29763;50.904;5.530;2022-12-07T04:31:38;4.40;99.90
11067;DHT22;29763;50.904;5.530;2022-12-07T04:34:04;4.30;99.90
11067;DHT22;29763;50.904;5.530;2022-12-07T04:36:31;4.30;99.90
11067;DHT22;29763;50.904;5.530;2022-12-07T04:38:57;4.30;99.90
11067;DHT22;29763;50.904;5.530;2022-12-07T04:41:24;4.20;99.90
11067;DHT22;29763;50.904;5.530;2022-12-07T04:43:57;4.30;99.90
11067;DHT22;29763;50.904;5.530;2022-12-07T04:46:24;4.30;99.90
11067;DHT22;29763;50.904;5.530;2022-12-07T04:48:51;4.20;99.90
11067;DHT22;29763;50.904;5.530;2022-12-07T04:51:20;4.20;99.90
11067;DHT22;29763;50.904;5.530;2022-12-07T04:53:46;4.20;99.90
11067;DHT22;29763;50.904;5.530;2022-12-07T04:56:13;4.20;99.90
11067;DHT22;29763;50.904;5.530;2022-12-07T04:58:38;4.30;99.90
11067;DHT22;29763;50.904;5.530;2022-12-07T05:01:04;4.30;99.90
11067;DHT22;29763;50.904;5.530;2022-12-07T05:03:30;4.30;99.90
11067;DHT22;29763;50.904;5.530;2022-12-07T05:05:55;4.30;99.90
11067;DHT22;29763;50.904;5.530;2022-12-07T05:08:21;4.30;99.90
11067;DHT22;29763;50.904;5.530;2022-12-07T05:10:49;4.20;99.90
11067;DHT22;29763;50.904;5.530;2022-12-07T05:13:15;4.20;99.90
11067;DHT22;29763;50.904;5.530;2022-12-07T05:15:40;4.20;99.90
11067;DHT22;29763;50.904;5.530;2022-12-07T05:18:09;4.20;99.90
11067;DHT22;29763;50.904;5.530;2022-12-07T05:20:35;4.20;99.90
11067;DHT22;29763;50.904;5.530;2022-12-07T05:23:00;4.20;99.90
11067;DHT22;29763;50.904;5.530;2022-12-07T05:25:26;4.20;99.90
11067;DHT22;29763;50.904;5.530;2022-12-07T05:27:53;4.20;99.90
11067;DHT22;29763;50.904;5.530;2022-12-07T05:30:20;4.20;99.90
11067;DHT22;29763;50.904;5.530;2022-12-07T05:32:45;4.20;99.90
11067;DHT22;29763;50.904;5.530;2022-12-07T05:35:11;4.20;99.90
11067;DHT22;29763;50.904;5.530;2022-12-07T05:37:37;4.20;99.90
11067;DHT22;29763;50.904;5.530;2022-12-07T05:40:04;4.10;99.90
11067;DHT22;29763;50.904;5.530;2022-12-07T05:42:30;4.10;99.90
11067;DHT22;29763;50.904;5.530;2022-12-07T05:44:56;4.10;99.90
11067;DHT22;29763;50.904;5.530;2022-12-07T05:47:22;4.10;99.90
11067;DHT22;29763;50.904;5.530;2022-12-07T05:49:48;4.20;99.90
11067;DHT22;29763;50.904;5.530;2022-12-07T05:52:14;4.20;99.90
11067;DHT22;29763;50.904;5.530;2022-12-07T05:54:39;4.20;99.90
11067;DHT22;29763;50.904;5.530;2022-12-07T05:57:05;4.20;99.90
11067;DHT22;29763;50.904;5.530;2022-12-07T05:59:31;4.10;99.90
11067;DHT22;29763;50.904;5.530;2022-12-07T06:02:08;4.10;99.90
11067;DHT22;29763;50.904;5.530;2022-12-07T06:04:41;4.10;99.90
11067;DHT22;29763;50.904;5.530;2022-12-07T06:07:08;4.10;99.90
11067;DHT22;29763;50.904;5.530;2022-12-07T06:09:34;4.10;99.90
11067;DHT22;29763;50.904;5.530;2022-12-07T06:12:01;4.10;99.90
11067;DHT22;29763;50.904;5.530;2022-12-07T06:14:45;4.10;99.90
11067;DHT22;29763;50.904;5.530;2022-12-07T06:17:15;4.10;99.90
11067;DHT22;29763;50.904;5.530;2022-12-07T06:19:41;4.00;99.90
11067;DHT22;29763;50.904;5.530;2022-12-07T06:22:07;4.00;99.90
11067;DHT22;29763;50.904;5.530;2022-12-07T06:24:35;4.10;99.90
11067;DHT22;29763;50.904;5.530;2022-12-07T06:27:01;4.10;99.90
11067;DHT22;29763;50.904;5.530;2022-12-07T06:29:26;4.00;99.90
11067;DHT22;29763;50.904;5.530;2022-12-07T06:31:52;4.00;99.90
11067;DHT22;29763;50.904;5.530;2022-12-07T06:34:22;4.00;99.90
11067;DHT22;29763;50.904;5.530;2022-12-07T06:36:49;4.00;99.90
11067;DHT22;29763;50.904;5.530;2022-12-07T06:39:22;4.00;99.90
11067;DHT22;29763;50.904;5.530;2022-12-07T06:41:49;4.00;99.90
11067;DHT22;29763;50.904;5.530;2022-12-07T06:44:18;4.00;99.90
11067;DHT22;29763;50.904;5.530;2022-12-07T06:46:44;3.90;99.90
11067;DHT22;29763;50.904;5.530;2022-12-07T06:49:10;4.00;99.90
11067;DHT22;29763;50.904;5.530;2022-12-07T06:51:36;3.90;99.90
11067;DHT22;29763;50.904;5.530;2022-12-07T06:54:08;4.00;99.90
11067;DHT22;29763;50.904;5.530;2022-12-07T06:56:36;4.00;99.90
11067;DHT22;29763;50.904;5.530;2022-12-07T06:59:03;4.00;99.90
11067;DHT22;29763;50.904;5.530;2022-12-07T07:01:29;4.00;99.90
11067;DHT22;29763;50.904;5.530;2022-12-07T07:03:54;4.00;99.90
11067;DHT22;29763;50.904;5.530;2022-12-07T07:06:20;4.00;99.90
11067;DHT22;29763;50.904;5.530;2022-12-07T07:08:46;4.00;99.90
11067;DHT22;29763;50.904;5.530;2022-12-07T07:11:11;3.90;99.90
11067;DHT22;29763;50.904;5.530;2022-12-07T07:13:37;3.90;99.90
11067;DHT22;29763;50.904;5.530;2022-12-07T07:16:03;3.90;99.90
11067;DHT22;29763;50.904;5.530;2022-12-07T07:18:32;3.90;99.90
11067;DHT22;29763;50.904;5.530;2022-12-07T07:20:57;3.90;99.90
11067;DHT22;29763;50.904;5.530;2022-12-07T07:23:24;3.90;99.90
11067;DHT22;29763;50.904;5.530;2022-12-07T07:25:50;3.90;99.90
11067;DHT22;29763;50.904;5.530;2022-12-07T07:28:16;3.90;99.90
11067;DHT22;29763;50.904;5.530;2022-12-07T07:30:42;3.80;99.90
11067;DHT22;29763;50.904;5.530;2022-12-07T07:33:08;3.90;99.90
11067;DHT22;29763;50.904;5.530;2022-12-07T07:35:34;3.80;99.90
11067;DHT22;29763;50.904;5.530;2022-12-07T07:38:00;3.80;99.90
11067;DHT22;29763;50.904;5.530;2022-12-07T07:40:29;3.80;99.90
11067;DHT22;29763;50.904;5.530;2022-12-07T07:42:55;3.70;99.90
11067;DHT22;29763;50.904;5.530;2022-12-07T07:45:23;3.70;99.90
11067;DHT22;29763;50.904;5.530;2022-12-07T07:48:06;3.60;99.90
11067;DHT22;29763;50.904;5.530;2022-12-07T07:50:31;3.60;99.90
11067;DHT22;29763;50.904;5.530;2022-12-07T07:52:57;3.60;99.90
11067;DHT22;29763;50.904;5.530;2022-12-07T07:55:23;3.70;99.90
11067;DHT22;29763;50.904;5.530;2022-12-07T07:57:49;3.60;99.90
11067;DHT22;29763;50.904;5.530;2022-12-07T08:00:16;3.60;99.90
11067;DHT22;29763;50.904;5.530;2022-12-07T08:02:43;3.60;99.90
11067;DHT22;29763;50.904;5.530;2022-12-07T08:05:10;3.60;99.90
11067;DHT22;29763;50.904;5.530;2022-12-07T08:07:36;3.60;99.90
11067;DHT22;29763;50.904;5.530;2022-12-07T08:10:02;3.60;99.90
11067;DHT22;29763;50.904;5.530;2022-12-07T08:12:28;3.50;99.90
11067;DHT22;29763;50.904;5.530;2022-12-07T08:14:54;3.60;99.90
11067;DHT22;29763;50.904;5.530;2022-12-07T08:17:20;3.50;99.90
11067;DHT22;29763;50.904;5.530;2022-12-07T08:19:45;3.50;99.90
11067;DHT22;29763;50.904;5.530;2022-12-07T08:22:11;3.50;99.90
11067;DHT22;29763;50.904;5.530;2022-12-07T08:24:37;3.60;99.90
11067;DHT22;29763;50.904;5.530;2022-12-07T08:27:03;3.60;99.90
11067;DHT22;29763;50.904;5.530;2022-12-07T08:29:29;3.70;99.90
11067;DHT22;29763;50.904;5.530;2022-12-07T08:31:55;3.70;99.90
11067;DHT22;29763;50.904;5.530;2022-12-07T08:34:21;3.70;99.90
11067;DHT22;29763;50.904;5.530;2022-12-07T08:36:47;3.80;99.90
11067;DHT22;29763;50.904;5.530;2022-12-07T08:39:13;3.80;99.90
11067;DHT22;29763;50.904;5.530;2022-12-07T08:41:38;3.90;99.90
11067;DHT22;29763;50.904;5.530;2022-12-07T08:44:04;3.90;99.90
11067;DHT22;29763;50.904;5.530;2022-12-07T08:49:53;4.20;99.90
11067;DHT22;29763;50.904;5.530;2022-12-07T08:52:19;4.20;99.90
11067;DHT22;29763;50.904;5.530;2022-12-07T08:54:46;4.40;99.90
11067;DHT22;29763;50.904;5.530;2022-12-07T08:57:12;4.40;99.90
11067;DHT22;29763;50.904;5.530;2022-12-07T08:59:38;4.40;99.90
11067;DHT22;29763;50.904;5.530;2022-12-07T09:02:05;4.50;99.90
11067;DHT22;29763;50.904;5.530;2022-12-07T09:04:31;4.50;99.90
11067;DHT22;29763;50.904;5.530;2022-12-07T09:06:57;4.60;99.90
11067;DHT22;29763;50.904;5.530;2022-12-07T09:09:24;4.70;99.90
11067;DHT22;29763;50.904;5.530;2022-12-07T09:11:50;4.90;99.90
11067;DHT22;29763;50.904;5.530;2022-12-07T09:14:16;5.00;99.90
11067;DHT22;29763;50.904;5.530;2022-12-07T09:16:42;5.20;99.90
11067;DHT22;29763;50.904;5.530;2022-12-07T09:19:08;5.20;99.90
11067;DHT22;29763;50.904;5.530;2022-12-07T09:21:34;5.20;99.90
11067;DHT22;29763;50.904;5.530;2022-12-07T09:24:00;5.30;99.90
11067;DHT22;29763;50.904;5.530;2022-12-07T09:26:26;5.30;99.90
11067;DHT22;29763;50.904;5.530;2022-12-07T09:28:51;5.20;99.90
11067;DHT22;29763;50.904;5.530;2022-12-07T09:31:17;5.30;99.90
11067;DHT22;29763;50.904;5.530;2022-12-07T09:33:43;5.20;99.90
11067;DHT22;29763;50.904;5.530;2022-12-07T09:36:09;5.20;99.90
11067;DHT22;29763;50.904;5.530;2022-12-07T09:38:35;5.20;99.90
11067;DHT22;29763;50.904;5.530;2022-12-07T09:41:06;5.30;99.90
11067;DHT22;29763;50.904;5.530;2022-12-07T09:43:35;5.50;99.90
11067;DHT22;29763;50.904;5.530;2022-12-07T09:46:02;5.70;99.90
11067;DHT22;29763;50.904;5.530;2022-12-07T09:48:48;5.80;99.90
11067;DHT22;29763;50.904;5.530;2022-12-07T09:51:20;5.90;99.90
11067;DHT22;29763;50.904;5.530;2022-12-07T09:53:47;6.00;99.90
11067;DHT22;29763;50.904;5.530;2022-12-07T09:56:17;6.00;99.90
11067;DHT22;29763;50.904;5.530;2022-12-07T09:58:44;6.10;99.90
11067;DHT22;29763;50.904;5.530;2022-12-07T10:01:17;6.00;99.90
11067;DHT22;29763;50.904;5.530;2022-12-07T10:04:51;6.00;99.90
11067;DHT22;29763;50.904;5.530;2022-12-07T10:06:47;6.00;99.90
11067;DHT22;29763;50.904;5.530;2022-12-07T10:09:15;6.00;99.90
11067;DHT22;29763;50.904;5.530;2022-12-07T10:12:06;5.90;99.90
11067;DHT22;29763;50.904;5.530;2022-12-07T10:14:36;5.80;99.90
11067;DHT22;29763;50.904;5.530;2022-12-07T10:17:02;5.70;99.90
11067;DHT22;29763;50.904;5.530;2022-12-07T10:19:30;5.70;99.90
11067;DHT22;29763;50.904;5.530;2022-12-07T10:22:09;5.70;99.90
11067;DHT22;29763;50.904;5.530;2022-12-07T10:24:35;5.70;99.90
11067;DHT22;29763;50.904;5.530;2022-12-07T10:27:02;5.80;99.90
11067;DHT22;29763;50.904;5.530;2022-12-07T10:34:51;5.80;99.90
11067;DHT22;29763;50.904;5.530;2022-12-07T10:37:19;5.80;99.90
11067;DHT22;29763;50.904;5.530;2022-12-07T10:39:46;6.00;99.90
11067;DHT22;29763;50.904;5.530;2022-12-07T10:42:27;6.30;99.90
11067;DHT22;29763;50.904;5.530;2022-12-07T10:55:53;6.80;99.90
11067;DHT22;29763;50.904;5.530;2022-12-07T11:03:45;6.60;99.90
11067;DHT22;29763;50.904;5.530;2022-12-07T11:06:30;6.50;99.90
11067;DHT22;29763;50.904;5.530;2022-12-07T11:09:25;6.50;99.90
11067;DHT22;29763;50.904;5.530;2022-12-07T11:12:05;6.40;99.90
11067;DHT22;29763;50.904;5.530;2022-12-07T11:15:02;6.30;99.90
11067;DHT22;29763;50.904;5.530;2022-12-07T11:20:50;6.60;99.90
11067;DHT22;29763;50.904;5.530;2022-12-07T11:29:05;7.30;99.90
11067;DHT22;29763;50.904;5.530;2022-12-07T11:36:57;7.50;99.90
11067;DHT22;29763;50.904;5.530;2022-12-07T11:39:41;7.60;99.90
11067;DHT22;29763;50.904;5.530;2022-12-07T11:42:16;7.90;99.90
11067;DHT22;29763;50.904;5.530;2022-12-07T11:50:35;8.10;99.90
11067;DHT22;29763;50.904;5.530;2022-12-07T11:58:51;7.90;99.90
11067;DHT22;29763;50.904;5.530;2022-12-07T12:03:53;7.90;99.90
11067;DHT22;29763;50.904;5.530;2022-12-07T12:06:22;7.90;99.90
11067;DHT22;29763;50.904;5.530;2022-12-07T12:16:58;7.90;99.90
11067;DHT22;29763;50.904;5.530;2022-12-07T12:19:40;8.10;99.90
11067;DHT22;29763;50.904;5.530;2022-12-07T12:24:40;8.10;99.90
11067;DHT22;29763;50.904;5.530;2022-12-07T12:27:26;8.10;99.90
11067;DHT22;29763;50.904;5.530;2022-12-07T12:29:57;8.00;99.90
11067;DHT22;29763;50.904;5.530;2022-12-07T12:32:36;7.90;99.90
11067;DHT22;29763;50.904;5.530;2022-12-07T12:35:35;7.80;99.90
11067;DHT22;29763;50.904;5.530;2022-12-07T12:38:31;7.60;99.90
11067;DHT22;29763;50.904;5.530;2022-12-07T12:41:00;7.60;99.90
11067;DHT22;29763;50.904;5.530;2022-12-07T12:43:49;7.50;99.90
11067;DHT22;29763;50.904;5.530;2022-12-07T12:59:32;7.30;99.90
11067;DHT22;29763;50.904;5.530;2022-12-07T13:23:19;7.40;99.90
11067;DHT22;29763;50.904;5.530;2022-12-07T13:26:11;7.50;99.90
11067;DHT22;29763;50.904;5.530;2022-12-07T13:28:41;7.50;99.90
11067;DHT22;29763;50.904;5.530;2022-12-07T13:33:54;7.40;99.90
11067;DHT22;29763;50.904;5.530;2022-12-07T13:36:23;7.40;99.90
11067;DHT22;29763;50.904;5.530;2022-12-07T13:41:18;7.20;99.90
11067;DHT22;29763;50.904;5.530;2022-12-07T13:43:50;7.10;99.90
11067;DHT22;29763;50.904;5.530;2022-12-07T13:46:19;7.10;99.90
11067;DHT22;29763;50.904;5.530;2022-12-07T13:48:49;7.00;99.90
11067;DHT22;29763;50.904;5.530;2022-12-07T13:51:20;6.80;99.90
11067;DHT22;29763;50.904;5.530;2022-12-07T13:53:48;6.70;99.90
11067;DHT22;29763;50.904;5.530;2022-12-07T13:56:15;6.70;99.90
11067;DHT22;29763;50.904;5.530;2022-12-07T13:58:41;6.60;99.90
11067;DHT22;29763;50.904;5.530;2022-12-07T14:01:07;6.60;99.90
11067;DHT22;29763;50.904;5.530;2022-12-07T14:03:35;6.60;99.90
11067;DHT22;29763;50.904;5.530;2022-12-07T14:08:31;6.70;99.90
11067;DHT22;29763;50.904;5.530;2022-12-07T14:10:57;6.70;99.90
11067;DHT22;29763;50.904;5.530;2022-12-07T14:16:54;6.90;99.90
11067;DHT22;29763;50.904;5.530;2022-12-07T14:18:51;6.80;99.90
11067;DHT22;29763;50.904;5.530;2022-12-07T14:21:19;6.80;99.90
11067;DHT22;29763;50.904;5.530;2022-12-07T14:26:34;6.80;99.90
11067;DHT22;29763;50.904;5.530;2022-12-07T14:29:30;6.70;99.90
11067;DHT22;29763;50.904;5.530;2022-12-07T14:31:58;6.60;99.90
11067;DHT22;29763;50.904;5.530;2022-12-07T14:34:30;6.50;99.90
11067;DHT22;29763;50.904;5.530;2022-12-07T14:36:55;6.50;99.90
11067;DHT22;29763;50.904;5.530;2022-12-07T14:39:21;6.50;99.90
11067;DHT22;29763;50.904;5.530;2022-12-07T14:41:47;6.40;99.90
11067;DHT22;29763;50.904;5.530;2022-12-07T14:44:16;6.30;99.90
11067;DHT22;29763;50.904;5.530;2022-12-07T14:46:42;6.20;99.90
11067;DHT22;29763;50.904;5.530;2022-12-07T14:49:08;6.10;99.90
11067;DHT22;29763;50.904;5.530;2022-12-07T14:51:36;6.00;99.90
11067;DHT22;29763;50.904;5.530;2022-12-07T14:54:05;5.80;99.90
11067;DHT22;29763;50.904;5.530;2022-12-07T14:56:32;5.70;99.90
11067;DHT22;29763;50.904;5.530;2022-12-07T14:58:57;5.60;99.90
11067;DHT22;29763;50.904;5.530;2022-12-07T15:01:23;5.50;99.90
11067;DHT22;29763;50.904;5.530;2022-12-07T15:03:49;5.50;99.90
11067;DHT22;29763;50.904;5.530;2022-12-07T15:06:17;5.40;99.90
11067;DHT22;29763;50.904;5.530;2022-12-07T15:08:43;5.40;99.90
11067;DHT22;29763;50.904;5.530;2022-12-07T15:11:17;5.40;99.90
11067;DHT22;29763;50.904;5.530;2022-12-07T15:13:43;5.40;99.90
11067;DHT22;29763;50.904;5.530;2022-12-07T15:16:28;5.40;99.90
11067;DHT22;29763;50.904;5.530;2022-12-07T15:18:56;5.30;99.90
11067;DHT22;29763;50.904;5.530;2022-12-07T15:21:22;5.30;99.90
11067;DHT22;29763;50.904;5.530;2022-12-07T15:23:49;5.30;99.90
11067;DHT22;29763;50.904;5.530;2022-12-07T15:26:15;5.30;99.90
11067;DHT22;29763;50.904;5.530;2022-12-07T15:28:41;5.20;99.90
11067;DHT22;29763;50.904;5.530;2022-12-07T15:31:15;5.20;99.90
11067;DHT22;29763;50.904;5.530;2022-12-07T15:33:41;5.20;99.90
11067;DHT22;29763;50.904;5.530;2022-12-07T15:36:07;5.30;99.90
11067;DHT22;29763;50.904;5.530;2022-12-07T15:38:33;5.20;99.90
11067;DHT22;29763;50.904;5.530;2022-12-07T15:41:00;5.20;99.90
11067;DHT22;29763;50.904;5.530;2022-12-07T15:43:25;5.20;99.90
11067;DHT22;29763;50.904;5.530;2022-12-07T15:46:10;5.20;99.90
11067;DHT22;29763;50.904;5.530;2022-12-07T15:48:36;5.20;99.90
11067;DHT22;29763;50.904;5.530;2022-12-07T15:51:03;5.20;99.90
11067;DHT22;29763;50.904;5.530;2022-12-07T15:53:29;5.20;99.90
11067;DHT22;29763;50.904;5.530;2022-12-07T15:55:55;5.20;99.90
11067;DHT22;29763;50.904;5.530;2022-12-07T15:58:21;5.20;99.90
11067;DHT22;29763;50.904;5.530;2022-12-07T16:00:47;5.20;99.90
11067;DHT22;29763;50.904;5.530;2022-12-07T16:03:13;5.20;99.90
11067;DHT22;29763;50.904;5.530;2022-12-07T16:05:39;5.20;99.90
11067;DHT22;29763;50.904;5.530;2022-12-07T16:08:05;5.10;99.90
11067;DHT22;29763;50.904;5.530;2022-12-07T16:10:31;5.10;99.90
11067;DHT22;29763;50.904;5.530;2022-12-07T16:12:57;5.10;99.90
11067;DHT22;29763;50.904;5.530;2022-12-07T16:15:22;5.00;99.90
11067;DHT22;29763;50.904;5.530;2022-12-07T16:17:50;5.00;99.90
11067;DHT22;29763;50.904;5.530;2022-12-07T16:20:16;5.00;99.90
11067;DHT22;29763;50.904;5.530;2022-12-07T16:22:42;5.00;99.90
11067;DHT22;29763;50.904;5.530;2022-12-07T16:25:08;5.00;99.90
11067;DHT22;29763;50.904;5.530;2022-12-07T16:27:34;5.00;99.90
11067;DHT22;29763;50.904;5.530;2022-12-07T16:30:00;5.00;99.90
11067;DHT22;29763;50.904;5.530;2022-12-07T16:32:26;4.90;99.90
11067;DHT22;29763;50.904;5.530;2022-12-07T16:34:52;4.90;99.90
11067;DHT22;29763;50.904;5.530;2022-12-07T16:37:17;4.80;99.90
11067;DHT22;29763;50.904;5.530;2022-12-07T16:39:43;4.80;99.90
11067;DHT22;29763;50.904;5.530;2022-12-07T16:42:09;4.70;99.90
11067;DHT22;29763;50.904;5.530;2022-12-07T16:44:34;4.60;99.90
11067;DHT22;29763;50.904;5.530;2022-12-07T16:47:00;4.60;99.90
11067;DHT22;29763;50.904;5.530;2022-12-07T16:49:26;4.50;99.90
11067;DHT22;29763;50.904;5.530;2022-12-07T16:51:52;4.50;99.90
11067;DHT22;29763;50.904;5.530;2022-12-07T16:54:17;4.40;99.90
11067;DHT22;29763;50.904;5.530;2022-12-07T16:56:43;4.40;99.90
11067;DHT22;29763;50.904;5.530;2022-12-07T16:59:09;4.40;99.90
11067;DHT22;29763;50.904;5.530;2022-12-07T17:01:35;4.30;99.90
11067;DHT22;29763;50.904;5.530;2022-12-07T17:04:01;4.30;99.90
11067;DHT22;29763;50.904;5.530;2022-12-07T17:06:28;4.30;99.90
11067;DHT22;29763;50.904;5.530;2022-12-07T17:08:56;4.30;99.90
11067;DHT22;29763;50.904;5.530;2022-12-07T17:11:24;4.30;99.90
11067;DHT22;29763;50.904;5.530;2022-12-07T17:13:50;4.40;99.90
11067;DHT22;29763;50.904;5.530;2022-12-07T17:16:35;4.40;99.90
11067;DHT22;29763;50.904;5.530;2022-12-07T17:19:08;4.40;99.90
11067;DHT22;29763;50.904;5.530;2022-12-07T17:21:35;4.50;99.90
11067;DHT22;29763;50.904;5.530;2022-12-07T17:24:03;4.50;99.90
11067;DHT22;29763;50.904;5.530;2022-12-07T17:26:29;4.40;99.90
11067;DHT22;29763;50.904;5.530;2022-12-07T17:28:55;4.50;99.90
11067;DHT22;29763;50.904;5.530;2022-12-07T17:31:22;4.50;99.90
11067;DHT22;29763;50.904;5.530;2022-12-07T17:33:49;4.50;99.90
11067;DHT22;29763;50.904;5.530;2022-12-07T17:36:18;4.50;99.90
11067;DHT22;29763;50.904;5.530;2022-12-07T17:38:45;4.50;99.90
11067;DHT22;29763;50.904;5.530;2022-12-07T17:44:02;4.40;99.90
11067;DHT22;29763;50.904;5.530;2022-12-07T17:46:29;4.40;99.90
11067;DHT22;29763;50.904;5.530;2022-12-07T17:48:56;4.30;99.90
11067;DHT22;29763;50.904;5.530;2022-12-07T17:51:22;4.20;99.90
11067;DHT22;29763;50.904;5.530;2022-12-07T17:54:06;4.30;99.90
11067;DHT22;29763;50.904;5.530;2022-12-07T17:56:32;4.20;99.90
11067;DHT22;29763;50.904;5.530;2022-12-07T17:58:57;4.20;99.90
11067;DHT22;29763;50.904;5.530;2022-12-07T18:01:23;4.20;99.90
11067;DHT22;29763;50.904;5.530;2022-12-07T18:03:55;4.20;99.90
11067;DHT22;29763;50.904;5.530;2022-12-07T18:06:21;4.20;99.90
11067;DHT22;29763;50.904;5.530;2022-12-07T18:08:47;4.30;99.90
11067;DHT22;29763;50.904;5.530;2022-12-07T18:11:13;4.30;99.90
11067;DHT22;29763;50.904;5.530;2022-12-07T18:13:38;4.30;99.90
11067;DHT22;29763;50.904;5.530;2022-12-07T18:16:07;4.30;99.90
11067;DHT22;29763;50.904;5.530;2022-12-07T18:18:33;4.30;99.90
11067;DHT22;29763;50.904;5.530;2022-12-07T18:21:04;4.30;99.90
11067;DHT22;29763;50.904;5.530;2022-12-07T18:23:30;4.30;99.90